Alamance, North Carolina
Current Conditions -  °F | °C
As of 7:54 PM on Saturday 25 Oct 2014 (Local Time) from KBUY Reporting Station
Clear Clear  
Wind Chill: 60°   Ceiling: Unl
Heat Index: 60°   Visibility: 10mi
Dew Point: 41°   Wind: 5mph
Humidity: 49%   Direction: 230°SW
Pressure: 29.9"   Gusts: NA
Location:  36.04°N, 79.49°W
Report Text: KBUY 252354Z AUTO 23004KT 10SM CLR 16/05 A2990 RMK AO2 SLP125 T01560050 10222 20139 55002
Loading
Personal Weather Stations






























Interactive Weather Map
Tropical Storm Tracking
New forecast layout! Learn more

10-Day Weather Forecast

Advertisements
Track Severe Weather on mobile